PWSweather.com
Personal Weather Stations
Station Observations
METEOC500
Santo Antonio, FunchalPT 2020

Santo AntonioFunchalPT 2020

Lat: 32.678227, Lon: -16.945054

Elevation: 1669.94751

Station Type: WH Series

High Low Average
Temperature 71.2°F21.8°F 60.6°F15.9°F 65.6°F18.7°F
Dew Point 62.4°F16.9°F 55.6°F13.1°F 59.7°F15.4°F
Winds 10.1 mph -16.3 mph - Calm Calm 3.0 mph 4.8 mph
Wind Gusts 17.4 mph28.0 mph -- 8.1 mph13.0 mph
Humidity 93% 68% 82%
Pressure 30.27 in1025.10 in 30.19 in1022.40 in -
Precipitation 0.00 in0.00 in - -
Hour Temp Dew Point Humidity Winds Wind Gusts Pressure Precip Precip Rate Daily Precip Total
12:14 AM 64.2°F17.9°C 61.2°F16.2°C 90% Calm Calm 2.5 mph4.0 kmh 30.22 in1023.4 mb 0.00 in0.0 mm 0.00 in0.0 mm 0.00 in0.0 mm
12:29 AM 64.6°F18.1°C 61.5°F16.4°C 90% Calm Calm 4.9 mph7.9 kmh 30.23 in1023.7 mb 0.00 in0.0 mm 0.00 in0.0 mm 0.00 in0.0 mm
12:44 AM 64.8°F18.2°C 61.7°F16.5°C 90% Calm Calm 4.9 mph7.9 kmh 30.22 in1023.4 mb 0.00 in0.0 mm 0.00 in0.0 mm 0.00 in0.0 mm
12:59 AM 64.8°F18.2°C 61.7°F16.5°C 90% Calm Calm 2.5 mph4.0 kmh 30.22 in1023.4 mb 0.00 in0.0 mm 0.00 in0.0 mm 0.00 in0.0 mm
01:14 AM 64.8°F18.2°C 62.1°F16.7°C 91% Calm Calm 4.9 mph7.9 kmh 30.22 in1023.4 mb 0.00 in0.0 mm 0.00 in0.0 mm 0.00 in0.0 mm
01:29 AM 64.8°F18.2°C 62.4°F16.9°C 92% 0.9 mph S1.4 kmh S 2.5 mph4.0 kmh 30.22 in1023.4 mb 0.00 in0.0 mm 0.00 in0.0 mm 0.00 in0.0 mm
01:44 AM 64.6°F18.1°C 62.4°F16.9°C 93% Calm Calm 4.9 mph7.9 kmh 30.21 in1023.0 mb 0.00 in0.0 mm 0.00 in0.0 mm 0.00 in0.0 mm
01:59 AM 64.2°F17.9°C 61.9°F16.6°C 92% Calm Calm 2.5 mph4.0 kmh 30.20 in1022.7 mb 0.00 in0.0 mm 0.00 in0.0 mm 0.00 in0.0 mm
02:14 AM 64.0°F17.8°C 61.3°F16.3°C 91% 1.8 mph N2.9 kmh N 2.5 mph4.0 kmh 30.20 in1022.7 mb 0.00 in0.0 mm 0.00 in0.0 mm 0.00 in0.0 mm
02:29 AM 63.9°F17.7°C 60.3°F15.7°C 88% Calm Calm 4.9 mph7.9 kmh 30.20 in1022.7 mb 0.00 in0.0 mm 0.00 in0.0 mm 0.00 in0.0 mm
02:44 AM 64.2°F17.9°C 61.0°F16.1°C 89% 3.1 mph S5.0 kmh S 4.9 mph7.9 kmh 30.19 in1022.4 mb 0.00 in0.0 mm 0.00 in0.0 mm 0.00 in0.0 mm
02:59 AM 64.4°F18.0°C 62.1°F16.7°C 92% Calm Calm 4.9 mph7.9 kmh 30.19 in1022.4 mb 0.00 in0.0 mm 0.00 in0.0 mm 0.00 in0.0 mm
03:14 AM 64.0°F17.8°C 61.7°F16.5°C 92% 0.2 mph SE0.3 kmh SE 4.9 mph7.9 kmh 30.19 in1022.4 mb 0.00 in0.0 mm 0.00 in0.0 mm 0.00 in0.0 mm
03:29 AM 63.5°F17.5°C 61.2°F16.2°C 92% Calm Calm 2.5 mph4.0 kmh 30.19 in1022.4 mb 0.00 in0.0 mm 0.00 in0.0 mm 0.00 in0.0 mm
03:44 AM 63.3°F17.4°C 60.6°F15.9°C 91% Calm Calm -- 30.19 in1022.4 mb 0.00 in0.0 mm 0.00 in0.0 mm 0.00 in0.0 mm
03:59 AM 63.3°F17.4°C 60.1°F15.6°C 89% Calm Calm 2.5 mph4.0 kmh 30.19 in1022.4 mb 0.00 in0.0 mm 0.00 in0.0 mm 0.00 in0.0 mm
04:14 AM 63.3°F17.4°C 59.7°F15.4°C 88% Calm Calm 2.5 mph4.0 kmh 30.19 in1022.4 mb 0.00 in0.0 mm 0.00 in0.0 mm 0.00 in0.0 mm
04:29 AM 63.5°F17.5°C 59.9°F15.5°C 88% 1.6 mph SE2.6 kmh SE 4.9 mph7.9 kmh 30.19 in1022.4 mb 0.00 in0.0 mm 0.00 in0.0 mm 0.00 in0.0 mm
04:44 AM 63.5°F17.5°C 59.9°F15.5°C 88% 1.8 mph WNW2.9 kmh WNW 10.1 mph16.3 kmh 30.19 in1022.4 mb 0.00 in0.0 mm 0.00 in0.0 mm 0.00 in0.0 mm
04:59 AM 63.1°F17.3°C 59.2°F15.1°C 87% 0.2 mph WNW0.3 kmh WNW 4.9 mph7.9 kmh 30.19 in1022.4 mb 0.00 in0.0 mm 0.00 in0.0 mm 0.00 in0.0 mm
05:14 AM 62.6°F17.0°C 58.6°F14.8°C 87% 1.3 mph NNW2.1 kmh NNW 4.9 mph7.9 kmh 30.19 in1022.4 mb 0.00 in0.0 mm 0.00 in0.0 mm 0.00 in0.0 mm
05:29 AM 61.9°F16.6°C 57.9°F14.4°C 87% 1.8 mph NW2.9 kmh NW 7.6 mph12.2 kmh 30.19 in1022.4 mb 0.00 in0.0 mm 0.00 in0.0 mm 0.00 in0.0 mm
05:44 AM 61.7°F16.5°C 57.2°F14.0°C 85% 1.6 mph NW2.6 kmh NW 7.6 mph12.2 kmh 30.20 in1022.7 mb 0.00 in0.0 mm 0.00 in0.0 mm 0.00 in0.0 mm
05:59 AM 61.7°F16.5°C 57.2°F14.0°C 85% 2.2 mph NW3.5 kmh NW 7.6 mph12.2 kmh 30.20 in1022.7 mb 0.00 in0.0 mm 0.00 in0.0 mm 0.00 in0.0 mm
06:14 AM 61.7°F16.5°C 57.4°F14.1°C 86% 4.0 mph N6.4 kmh N 7.6 mph12.2 kmh 30.20 in1022.7 mb 0.00 in0.0 mm 0.00 in0.0 mm 0.00 in0.0 mm
06:29 AM 61.2°F16.2°C 57.2°F14.0°C 87% 7.8 mph N12.6 kmh N 10.1 mph16.3 kmh 30.21 in1023.0 mb 0.00 in0.0 mm 0.00 in0.0 mm 0.00 in0.0 mm
06:44 AM 60.8°F16.0°C 56.8°F13.8°C 87% 4.9 mph N7.9 kmh N 10.1 mph16.3 kmh 30.21 in1023.0 mb 0.00 in0.0 mm 0.00 in0.0 mm 0.00 in0.0 mm
06:59 AM 60.8°F16.0°C 56.8°F13.8°C 87% 4.5 mph N7.2 kmh N 7.6 mph12.2 kmh 30.22 in1023.4 mb 0.00 in0.0 mm 0.00 in0.0 mm 0.00 in0.0 mm
07:14 AM 60.6°F15.9°C 56.7°F13.7°C 87% 3.8 mph NNW6.1 kmh NNW 7.6 mph12.2 kmh 30.22 in1023.4 mb 0.00 in0.0 mm 0.00 in0.0 mm 0.00 in0.0 mm
07:29 AM 60.6°F15.9°C 56.5°F13.6°C 86% 3.8 mph NNW6.1 kmh NNW 4.9 mph7.9 kmh 30.22 in1023.4 mb 0.00 in0.0 mm 0.00 in0.0 mm 0.00 in0.0 mm
07:44 AM 61.2°F16.2°C 55.6°F13.1°C 82% 5.6 mph N9.0 kmh N 7.6 mph12.2 kmh 30.23 in1023.7 mb 0.00 in0.0 mm 0.00 in0.0 mm 0.00 in0.0 mm
07:59 AM 62.2°F16.8°C 56.7°F13.7°C 82% 4.9 mph N7.9 kmh N 10.1 mph16.3 kmh 30.24 in1024.0 mb 0.00 in0.0 mm 0.00 in0.0 mm 0.00 in0.0 mm
08:14 AM 63.3°F17.4°C 57.0°F13.9°C 80% 3.4 mph NNE5.5 kmh NNE 7.6 mph12.2 kmh 30.24 in1024.0 mb 0.00 in0.0 mm 0.00 in0.0 mm 0.00 in0.0 mm
08:30 AM 64.4°F18.0°C 58.1°F14.5°C 80% 0.9 mph N1.4 kmh N 4.9 mph7.9 kmh 30.24 in1024.0 mb 0.00 in0.0 mm 0.00 in0.0 mm 0.00 in0.0 mm
08:45 AM 66.0°F18.9°C 57.2°F14.0°C 73% 0.2 mph SSE0.3 kmh SSE 7.6 mph12.2 kmh 30.24 in1024.0 mb 0.00 in0.0 mm 0.00 in0.0 mm 0.00 in0.0 mm
09:00 AM 68.9°F20.5°C 59.9°F15.5°C 73% 3.8 mph SSW6.1 kmh SSW 10.1 mph16.3 kmh 30.25 in1024.4 mb 0.00 in0.0 mm 0.00 in0.0 mm 0.00 in0.0 mm
09:15 AM 68.7°F20.4°C 61.2°F16.2°C 77% 0.7 mph SSW1.1 kmh SSW 10.1 mph16.3 kmh 30.25 in1024.4 mb 0.00 in0.0 mm 0.00 in0.0 mm 0.00 in0.0 mm
09:30 AM 67.1°F19.5°C 59.4°F15.2°C 76% 1.3 mph SSE2.1 kmh SSE 4.9 mph7.9 kmh 30.25 in1024.4 mb 0.00 in0.0 mm 0.00 in0.0 mm 0.00 in0.0 mm
09:45 AM 66.7°F19.3°C 59.0°F15.0°C 76% 1.6 mph SSW2.6 kmh SSW 10.1 mph16.3 kmh 30.26 in1024.7 mb 0.00 in0.0 mm 0.00 in0.0 mm 0.00 in0.0 mm
10:00 AM 66.6°F19.2°C 58.8°F14.9°C 76% 0.7 mph S1.1 kmh S 7.6 mph12.2 kmh 30.25 in1024.4 mb 0.00 in0.0 mm 0.00 in0.0 mm 0.00 in0.0 mm
10:15 AM 67.6°F19.8°C 59.4°F15.2°C 75% 2.9 mph E4.7 kmh E 7.6 mph12.2 kmh 30.26 in1024.7 mb 0.00 in0.0 mm 0.00 in0.0 mm 0.00 in0.0 mm
10:30 AM 68.2°F20.1°C 61.0°F16.1°C 78% 0.2 mph E0.3 kmh E 7.6 mph12.2 kmh 30.26 in1024.7 mb 0.00 in0.0 mm 0.00 in0.0 mm 0.00 in0.0 mm
10:45 AM 67.8°F19.9°C 59.5°F15.3°C 75% 4.0 mph SSW6.4 kmh SSW 10.1 mph16.3 kmh 30.26 in1024.7 mb 0.00 in0.0 mm 0.00 in0.0 mm 0.00 in0.0 mm
11:00 AM 67.8°F19.9°C 60.3°F15.7°C 77% 6.9 mph SE11.1 kmh SE 7.6 mph12.2 kmh 30.25 in1024.4 mb 0.00 in0.0 mm 0.00 in0.0 mm 0.00 in0.0 mm
11:15 AM 67.8°F19.9°C 60.6°F15.9°C 78% 8.7 mph SSE14.0 kmh SSE 10.1 mph16.3 kmh 30.26 in1024.7 mb 0.00 in0.0 mm 0.00 in0.0 mm 0.00 in0.0 mm
11:30 AM 67.8°F19.9°C 60.3°F15.7°C 77% 4.0 mph S6.4 kmh S 12.5 mph20.1 kmh 30.26 in1024.7 mb 0.00 in0.0 mm 0.00 in0.0 mm 0.00 in0.0 mm
11:45 AM 68.0°F20.0°C 60.4°F15.8°C 77% 5.6 mph ESE9.0 kmh ESE 12.5 mph20.1 kmh 30.26 in1024.7 mb 0.00 in0.0 mm 0.00 in0.0 mm 0.00 in0.0 mm
12:00 PM 68.2°F20.1°C 61.3°F16.3°C 79% 7.6 mph SSE12.2 kmh SSE 12.5 mph20.1 kmh 30.25 in1024.4 mb 0.00 in0.0 mm 0.00 in0.0 mm 0.00 in0.0 mm
12:15 PM 68.0°F20.0°C 60.4°F15.8°C 77% 6.3 mph SSE10.1 kmh SSE 12.5 mph20.1 kmh 30.26 in1024.7 mb 0.00 in0.0 mm 0.00 in0.0 mm 0.00 in0.0 mm
12:30 PM 68.4°F20.2°C 60.4°F15.8°C 76% 7.6 mph ESE12.2 kmh ESE 12.5 mph20.1 kmh 30.26 in1024.7 mb 0.00 in0.0 mm 0.00 in0.0 mm 0.00 in0.0 mm
12:45 PM 69.1°F20.6°C 60.1°F15.6°C 73% 5.6 mph SE9.0 kmh SE 15.0 mph24.1 kmh 30.25 in1024.4 mb 0.00 in0.0 mm 0.00 in0.0 mm 0.00 in0.0 mm
01:00 PM 69.6°F20.9°C 59.4°F15.2°C 70% 4.0 mph S6.4 kmh S 15.0 mph24.1 kmh 30.26 in1024.7 mb 0.00 in0.0 mm 0.00 in0.0 mm 0.00 in0.0 mm
01:15 PM 70.5°F21.4°C 60.6°F15.9°C 71% 4.7 mph S7.6 kmh S 12.5 mph20.1 kmh 30.25 in1024.4 mb 0.00 in0.0 mm 0.00 in0.0 mm 0.00 in0.0 mm
01:30 PM 70.7°F21.5°C 61.7°F16.5°C 73% 9.2 mph S14.8 kmh S 12.5 mph20.1 kmh 30.25 in1024.4 mb 0.00 in0.0 mm 0.00 in0.0 mm 0.00 in0.0 mm
01:45 PM 70.0°F21.1°C 61.7°F16.5°C 75% 2.9 mph E4.7 kmh E 15.0 mph24.1 kmh 30.25 in1024.4 mb 0.00 in0.0 mm 0.00 in0.0 mm 0.00 in0.0 mm
02:00 PM 69.1°F20.6°C 60.8°F16.0°C 75% 6.5 mph S10.5 kmh S 12.5 mph20.1 kmh 30.24 in1024.0 mb 0.00 in0.0 mm 0.00 in0.0 mm 0.00 in0.0 mm
02:15 PM 68.9°F20.5°C 59.5°F15.3°C 72% 5.6 mph SE9.0 kmh SE 10.1 mph16.3 kmh 30.24 in1024.0 mb 0.00 in0.0 mm 0.00 in0.0 mm 0.00 in0.0 mm
02:30 PM 69.4°F20.8°C 60.4°F15.8°C 73% 4.0 mph SSE6.4 kmh SSE 12.5 mph20.1 kmh 30.24 in1024.0 mb 0.00 in0.0 mm 0.00 in0.0 mm 0.00 in0.0 mm
02:45 PM 69.8°F21.0°C 59.9°F15.5°C 71% 2.2 mph SSW3.5 kmh SSW 10.1 mph16.3 kmh 30.24 in1024.0 mb 0.00 in0.0 mm 0.00 in0.0 mm 0.00 in0.0 mm
03:00 PM 70.3°F21.3°C 59.4°F15.2°C 68% 5.6 mph S9.0 kmh S 10.1 mph16.3 kmh 30.23 in1023.7 mb 0.00 in0.0 mm 0.00 in0.0 mm 0.00 in0.0 mm
03:15 PM 71.2°F21.8°C 60.6°F15.9°C 69% 10.1 mph S16.3 kmh S 15.0 mph24.1 kmh 30.23 in1023.7 mb 0.00 in0.0 mm 0.00 in0.0 mm 0.00 in0.0 mm
03:30 PM 71.2°F21.8°C 61.0°F16.1°C 70% 0.9 mph S1.4 kmh S 17.4 mph28.0 kmh 30.24 in1024.0 mb 0.00 in0.0 mm 0.00 in0.0 mm 0.00 in0.0 mm
03:45 PM 70.7°F21.5°C 60.8°F16.0°C 71% 7.2 mph SE11.6 kmh SE 15.0 mph24.1 kmh 30.23 in1023.7 mb 0.00 in0.0 mm 0.00 in0.0 mm 0.00 in0.0 mm
04:00 PM 69.8°F21.0°C 60.4°F15.8°C 72% 9.4 mph SSE15.1 kmh SSE 12.5 mph20.1 kmh 30.23 in1023.7 mb 0.00 in0.0 mm 0.00 in0.0 mm 0.00 in0.0 mm
04:16 PM 69.4°F20.8°C 60.1°F15.6°C 72% 5.6 mph S9.0 kmh S 12.5 mph20.1 kmh 30.23 in1023.7 mb 0.00 in0.0 mm 0.00 in0.0 mm 0.00 in0.0 mm
04:31 PM 69.4°F20.8°C 61.5°F16.4°C 76% 4.7 mph SE7.6 kmh SE 15.0 mph24.1 kmh 30.23 in1023.7 mb 0.00 in0.0 mm 0.00 in0.0 mm 0.00 in0.0 mm
04:46 PM 68.9°F20.5°C 60.3°F15.7°C 74% 4.0 mph S6.4 kmh S 10.1 mph16.3 kmh 30.23 in1023.7 mb 0.00 in0.0 mm 0.00 in0.0 mm 0.00 in0.0 mm
05:01 PM 68.5°F20.3°C 60.3°F15.7°C 75% 5.6 mph S9.0 kmh S 15.0 mph24.1 kmh 30.23 in1023.7 mb 0.00 in0.0 mm 0.00 in0.0 mm 0.00 in0.0 mm
05:16 PM 68.2°F20.1°C 59.9°F15.5°C 75% 5.4 mph SSW8.7 kmh SSW 12.5 mph20.1 kmh 30.23 in1023.7 mb 0.00 in0.0 mm 0.00 in0.0 mm 0.00 in0.0 mm
05:31 PM 67.8°F19.9°C 59.9°F15.5°C 76% 4.7 mph S7.6 kmh S 12.5 mph20.1 kmh 30.23 in1023.7 mb 0.00 in0.0 mm 0.00 in0.0 mm 0.00 in0.0 mm
05:46 PM 67.8°F19.9°C 60.3°F15.7°C 77% 6.3 mph E10.1 kmh E 12.5 mph20.1 kmh 30.22 in1023.4 mb 0.00 in0.0 mm 0.00 in0.0 mm 0.00 in0.0 mm
06:01 PM 67.5°F19.7°C 60.8°F16.0°C 79% 2.5 mph S4.0 kmh S 10.1 mph16.3 kmh 30.22 in1023.4 mb 0.00 in0.0 mm 0.00 in0.0 mm 0.00 in0.0 mm
06:16 PM 67.1°F19.5°C 60.8°F16.0°C 80% 3.8 mph SE6.1 kmh SE 15.0 mph24.1 kmh 30.23 in1023.7 mb 0.00 in0.0 mm 0.00 in0.0 mm 0.00 in0.0 mm
06:31 PM 66.6°F19.2°C 60.6°F15.9°C 81% 4.7 mph SSE7.6 kmh SSE 10.1 mph16.3 kmh 30.22 in1023.4 mb 0.00 in0.0 mm 0.00 in0.0 mm 0.00 in0.0 mm
06:46 PM 65.8°F18.8°C 60.3°F15.7°C 82% 5.4 mph SE8.7 kmh SE 10.1 mph16.3 kmh 30.22 in1023.4 mb 0.00 in0.0 mm 0.00 in0.0 mm 0.00 in0.0 mm
07:01 PM 65.3°F18.5°C 59.7°F15.4°C 82% Calm Calm 10.1 mph16.3 kmh 30.22 in1023.4 mb 0.00 in0.0 mm 0.00 in0.0 mm 0.00 in0.0 mm
07:16 PM 65.1°F18.4°C 59.5°F15.3°C 82% 3.8 mph SE6.1 kmh SE 7.6 mph12.2 kmh 30.22 in1023.4 mb 0.00 in0.0 mm 0.00 in0.0 mm 0.00 in0.0 mm
07:31 PM 64.9°F18.3°C 59.7°F15.4°C 83% 1.6 mph S2.6 kmh S 7.6 mph12.2 kmh 30.23 in1023.7 mb 0.00 in0.0 mm 0.00 in0.0 mm 0.00 in0.0 mm
07:46 PM 64.8°F18.2°C 59.5°F15.3°C 83% Calm Calm 4.9 mph7.9 kmh 30.23 in1023.7 mb 0.00 in0.0 mm 0.00 in0.0 mm 0.00 in0.0 mm
08:01 PM 64.6°F18.1°C 59.7°F15.4°C 84% 1.3 mph S2.1 kmh S 4.9 mph7.9 kmh 30.23 in1023.7 mb 0.00 in0.0 mm 0.00 in0.0 mm 0.00 in0.0 mm
08:16 PM 64.4°F18.0°C 59.5°F15.3°C 84% 3.8 mph S6.1 kmh S 7.6 mph12.2 kmh 30.23 in1023.7 mb 0.00 in0.0 mm 0.00 in0.0 mm 0.00 in0.0 mm
08:31 PM 64.2°F17.9°C 59.4°F15.2°C 84% Calm Calm 7.6 mph12.2 kmh 30.23 in1023.7 mb 0.00 in0.0 mm 0.00 in0.0 mm 0.00 in0.0 mm
08:46 PM 64.0°F17.8°C 59.2°F15.1°C 84% 3.4 mph SE5.5 kmh SE 7.6 mph12.2 kmh 30.23 in1023.7 mb 0.00 in0.0 mm 0.00 in0.0 mm 0.00 in0.0 mm
09:01 PM 63.9°F17.7°C 59.0°F15.0°C 84% 0.2 mph S0.3 kmh S 4.9 mph7.9 kmh 30.24 in1024.0 mb 0.00 in0.0 mm 0.00 in0.0 mm 0.00 in0.0 mm
09:16 PM 63.9°F17.7°C 59.2°F15.1°C 85% 0.2 mph SE0.3 kmh SE 4.9 mph7.9 kmh 30.24 in1024.0 mb 0.00 in0.0 mm 0.00 in0.0 mm 0.00 in0.0 mm
09:31 PM 63.7°F17.6°C 59.0°F15.0°C 85% Calm Calm 2.5 mph4.0 kmh 30.25 in1024.4 mb 0.00 in0.0 mm 0.00 in0.0 mm 0.00 in0.0 mm
09:46 PM 63.7°F17.6°C 59.0°F15.0°C 85% Calm Calm -- 30.26 in1024.7 mb 0.00 in0.0 mm 0.00 in0.0 mm 0.00 in0.0 mm
10:01 PM 63.7°F17.6°C 58.8°F14.9°C 84% Calm Calm -- 30.27 in1025.1 mb 0.00 in0.0 mm 0.00 in0.0 mm 0.00 in0.0 mm
10:16 PM 63.3°F17.4°C 59.0°F15.0°C 86% 0.9 mph NNW1.4 kmh NNW 2.5 mph4.0 kmh 30.27 in1025.1 mb 0.00 in0.0 mm 0.00 in0.0 mm 0.00 in0.0 mm
10:31 PM 62.8°F17.1°C 58.8°F14.9°C 87% 3.1 mph NNW5.0 kmh NNW 4.9 mph7.9 kmh 30.27 in1025.1 mb 0.00 in0.0 mm 0.00 in0.0 mm 0.00 in0.0 mm
10:46 PM 62.1°F16.7°C 58.1°F14.5°C 87% 2.2 mph NNW3.5 kmh NNW 4.9 mph7.9 kmh 30.27 in1025.1 mb 0.00 in0.0 mm 0.00 in0.0 mm 0.00 in0.0 mm
11:01 PM 61.9°F16.6°C 57.6°F14.2°C 86% 1.6 mph NNW2.6 kmh NNW 7.6 mph12.2 kmh 30.27 in1025.1 mb 0.00 in0.0 mm 0.00 in0.0 mm 0.00 in0.0 mm
11:16 PM 62.1°F16.7°C 57.7°F14.3°C 86% 1.8 mph NNW2.9 kmh NNW 4.9 mph7.9 kmh 30.27 in1025.1 mb 0.00 in0.0 mm 0.00 in0.0 mm 0.00 in0.0 mm
11:31 PM 62.1°F16.7°C 58.1°F14.5°C 87% 1.3 mph NW2.1 kmh NW 4.9 mph7.9 kmh 30.27 in1025.1 mb 0.00 in0.0 mm 0.00 in0.0 mm 0.00 in0.0 mm
11:46 PM 61.9°F16.6°C 57.6°F14.2°C 86% 3.4 mph N5.5 kmh N 4.9 mph7.9 kmh 30.27 in1025.1 mb 0.00 in0.0 mm 0.00 in0.0 mm 0.00 in0.0 mm